地図

経路データ

SID SEASON NUMBER BASIN SUBBASIN NAME ISO_TIME NATURE LAT LON WMO_WIND WMO_PRES WMO_AGENCY TRACK_TYPE DIST2LAND LANDFALL IFLAG USA_AGENCY USA_ATCF_ID USA_LAT USA_LON USA_RECORD USA_STATUS USA_WIND USA_PRES USA_SSHS USA_R34_NE USA_R34_SE USA_R34_SW USA_R34_NW USA_R50_NE USA_R50_SE USA_R50_SW USA_R50_NW USA_R64_NE USA_R64_SE USA_R64_SW USA_R64_NW USA_POCI USA_ROCI USA_RMW USA_EYE TOKYO_LAT TOKYO_LON TOKYO_GRADE TOKYO_WIND TOKYO_PRES TOKYO_R50_DIR TOKYO_R50_LONG TOKYO_R50_SHORT TOKYO_R30_DIR TOKYO_R30_LONG TOKYO_R30_SHORT TOKYO_LAND CMA_LAT CMA_LON CMA_CAT CMA_WIND CMA_PRES HKO_LAT HKO_LON HKO_CAT HKO_WIND HKO_PRES NEWDELHI_LAT NEWDELHI_LON NEWDELHI_GRADE NEWDELHI_WIND NEWDELHI_PRES NEWDELHI_CI NEWDELHI_DP NEWDELHI_POCI REUNION_LAT REUNION_LON REUNION_TYPE REUNION_WIND REUNION_PRES REUNION_TNUM REUNION_CI REUNION_RMW REUNION_R34_NE REUNION_R34_SE REUNION_R34_SW REUNION_R34_NW REUNION_R50_NE REUNION_R50_SE REUNION_R50_SW REUNION_R50_NW REUNION_R64_NE REUNION_R64_SE REUNION_R64_SW REUNION_R64_NW BOM_LAT BOM_LON BOM_TYPE BOM_WIND BOM_PRES BOM_TNUM BOM_CI BOM_RMW BOM_R34_NE BOM_R34_SE BOM_R34_SW BOM_R34_NW BOM_R50_NE BOM_R50_SE BOM_R50_SW BOM_R50_NW BOM_R64_NE BOM_R64_SE BOM_R64_SW BOM_R64_NW BOM_ROCI BOM_POCI BOM_EYE BOM_POS_METHOD BOM_PRES_METHOD NADI_LAT NADI_LON NADI_CAT NADI_WIND NADI_PRES WELLINGTON_LAT WELLINGTON_LON WELLINGTON_WIND WELLINGTON_PRES DS824_LAT DS824_LON DS824_STAGE DS824_WIND DS824_PRES TD9636_LAT TD9636_LON TD9636_STAGE TD9636_WIND TD9636_PRES TD9635_LAT TD9635_LON TD9635_WIND TD9635_PRES TD9635_ROCI NEUMANN_LAT NEUMANN_LON NEUMANN_CLASS NEUMANN_WIND NEUMANN_PRES MLC_LAT MLC_LON MLC_CLASS MLC_WIND MLC_PRES USA_GUST BOM_GUST BOM_GUST_PER REUNION_GUST REUNION_GUST_PER USA_SEAHGT USA_SEARAD_NE USA_SEARAD_SE USA_SEARAD_SW USA_SEARAD_NW STORM_SPEED STORM_DIR
1963147N12135 1963 47 WP MM POLLY 1963-05-27 00:00:00 TS 12.3000 135.000 1008 tokyo main 1013 994 _OO___________ -1 12.3000 135.000 2 1008 0 0 0 12.3000 135.000 0 1008 6 315
1963147N12135 1963 47 WP MM POLLY 1963-05-27 03:00:00 TS 12.4950 134.798 main 994 976 _PP___________ -1 12.4950 134.798 2 1007 0 0 12.4950 134.798 0 1007 6 316
1963147N12135 1963 47 WP MM POLLY 1963-05-27 06:00:00 TS 12.7000 134.600 1006 tokyo main 976 959 _OO___________ -1 12.7000 134.600 2 1006 0 0 0 12.7000 134.600 0 1006 6 318
1963147N12135 1963 47 WP MM POLLY 1963-05-27 09:00:00 TS 12.9150 134.408 main 959 943 _PP___________ -1 12.9150 134.408 2 1006 0 0 12.9150 134.408 0 1006 6 316
1963147N12135 1963 47 WP MM POLLY 1963-05-27 12:00:00 TS 13.1000 134.200 1006 tokyo main 943 925 _OO___________ -1 13.1000 134.200 2 1006 0 0 0 13.1000 134.200 0 1006 5 304
1963147N12135 1963 47 WP MM POLLY 1963-05-27 15:00:00 TS 13.2150 133.957 main 925 897 _PP___________ -1 13.2150 133.957 2 1006 0 0 13.2150 133.957 0 1006 5 292
1963147N12135 1963 47 WP MM POLLY 1963-05-27 18:00:00 TS 13.3000 133.700 1006 tokyo main 897 878 _OO___________ -1 13.3000 133.700 2 1006 0 0 0 13.3000 133.700 0 1006 5 292
1963147N12135 1963 47 WP MM POLLY 1963-05-27 21:00:00 TS 13.4074 133.465 main 878 847 _PP___________ -1 13.4074 133.465 2 1006 0 0 13.4074 133.465 0 1006 5 292
1963147N12135 1963 47 WP MM POLLY 1963-05-28 00:00:00 TS 13.5000 133.200 1006 tokyo main 847 817 _OO___________ -1 13.5000 133.200 2 1006 0 0 0 13.5000 133.200 0 1006 6 285
1963147N12135 1963 47 WP MM POLLY 1963-05-28 03:00:00 TS 13.5726 132.850 main 817 775 _PP___________ -1 13.5726 132.850 2 1006 0 0 13.5726 132.850 0 1006 7 278
1963147N12135 1963 47 WP MM POLLY 1963-05-28 06:00:00 TS 13.6000 132.500 1006 tokyo main 775 743 _OO___________ -1 13.6000 132.500 2 1006 0 0 0 13.6000 132.500 0 1006 6 269
1963147N12135 1963 47 WP MM POLLY 1963-05-28 09:00:00 TS 13.5574 132.235 main 743 719 _PP___________ -1 13.5574 132.235 2 1006 0 0 13.5574 132.235 0 1006 5 258
1963147N12135 1963 47 WP MM POLLY 1963-05-28 12:00:00 TS 13.5000 132.000 1006 tokyo main 719 698 _OO___________ -1 13.5000 132.000 2 1006 0 0 0 13.5000 132.000 0 1006 5 263
1963147N12135 1963 47 WP MM POLLY 1963-05-28 15:00:00 TS 13.5000 131.758 main 698 666 _PP___________ -1 13.5000 131.758 2 1006 0 0 13.5000 131.758 0 1006 5 270
1963147N12135 1963 47 WP MM POLLY 1963-05-28 18:00:00 TS 13.5000 131.500 1006 tokyo main 666 635 _OO___________ -1 13.5000 131.500 2 1006 0 0 0 13.5000 131.500 0 1006 5 265
1963147N12135 1963 47 WP MM POLLY 1963-05-28 21:00:00 TS 13.4500 131.207 main 632 601 _PP___________ -1 13.4500 131.207 2 1006 0 0 13.4500 131.207 0 1006 6 260
1963147N12135 1963 47 WP MM POLLY 1963-05-29 00:00:00 TS 13.4000 130.900 1006 tokyo main 601 569 _OO___________ -1 13.4000 130.900 2 1006 0 0 0 13.4000 130.900 0 1006 6 264
1963147N12135 1963 47 WP MM POLLY 1963-05-29 03:00:00 TS 13.3924 130.615 main 569 537 _PP___________ -1 13.3924 130.615 2 1006 0 0 13.3924 130.615 0 1006 6 270
1963147N12135 1963 47 WP MM POLLY 1963-05-29 06:00:00 TS 13.4000 130.300 1006 tokyo main 537 495 _OO___________ -1 13.4000 130.300 2 1006 0 0 0 13.4000 130.300 0 1006 7 269
1963147N12135 1963 47 WP MM POLLY 1963-05-29 09:00:00 TS 13.3850 129.911 main 495 454 _PP___________ -1 13.3850 129.907 2 1005 0 0 13.3850 129.915 0 1005 8 270
1963147N12135 1963 47 WP MM POLLY 1963-05-29 12:00:00 TS 13.4000 129.500 1004 tokyo main 454 416 _OO___________ -1 13.4000 129.500 2 1004 0 0 0 13.4000 129.500 0 1004 8 276
1963147N12135 1963 47 WP MM POLLY 1963-05-29 15:00:00 TS 13.4701 129.084 main 416 390 _PP___________ -1 13.4700 129.113 2 1004 0 0 13.4701 129.055 0 1004 8 285
1963147N12135 1963 47 WP MM POLLY 1963-05-29 18:00:00 TS 13.6000 128.750 1004 tokyo main 390 375 _OO___________ -1 13.6000 128.800 2 1004 0 0 0 13.6000 128.700 0 1004 6 300
1963147N12135 1963 47 WP MM POLLY 1963-05-29 21:00:00 TS 13.7624 128.569 main 380 371 _PP___________ -1 13.7624 128.598 2 1004 0 0 13.7624 128.540 0 1004 5 329
1963147N12135 1963 47 WP MM POLLY 1963-05-30 00:00:00 TS 14.0000 128.500 1004 tokyo main 382 382 _OO___________ -1 14.0000 128.500 2 1004 0 0 0 14.0000 128.500 0 1004 6 347
1963147N12135 1963 47 WP MM POLLY 1963-05-30 03:00:00 TS 14.3424 128.436 main 392 392 _PP___________ -1 14.3424 128.433 2 1004 0 0 14.3424 128.440 0 1004 7 0
1963147N12135 1963 47 WP MM POLLY 1963-05-30 06:00:00 TS 14.7000 128.500 1004 tokyo main 428 428 _OO___________ -1 14.7000 128.500 2 1004 0 0 0 14.7000 128.500 0 1004 7 27
1963147N12135 1963 47 WP MM POLLY 1963-05-30 09:00:00 TS 14.9726 128.770 main 474 474 _PP___________ -1 14.9726 128.770 2 1004 0 0 14.9726 128.770 0 1004 8 49
1963147N12135 1963 47 WP MM POLLY 1963-05-30 12:00:00 TS 15.2000 129.100 1004 tokyo main 514 514 _OO___________ -1 15.2000 129.100 2 1004 0 0 0 15.2000 129.100 0 1004 7 50
1963147N12135 1963 47 WP MM POLLY 1963-05-30 15:00:00 TS 15.4037 129.308 main 544 544 _PP___________ -1 15.3999 129.308 2 1003 0 0 15.4074 129.308 0 1003 6 44
1963147N12135 1963 47 WP MM POLLY 1963-05-30 18:00:00 TS 15.6000 129.500 1002 tokyo main 575 575 _OO___________ -1 15.6000 129.500 2 1002 0 0 0 15.6000 129.500 0 1002 6 46
1963147N12135 1963 47 WP MM POLLY 1963-05-30 21:00:00 TS 15.8213 129.757 main 614 614 _PP___________ -1 15.8500 129.757 2 1002 0 0 15.7925 129.758 0 1002 7 47
1963147N12135 1963 47 WP MM POLLY 1963-05-31 00:00:00 TS 16.0556 130.000 1002 tokyo main 650 650 _OOO__________ -1 16.1000 130.000 2 1002 0 0 0 16.0000 130.000 0 1002 16.1000 130.000 TD 25 1002 6 40
1963147N12135 1963 47 WP MM POLLY 1963-05-31 03:00:00 TS 16.2739 130.158 main 678 678 _PPP__________ -1 16.3150 130.173 2 1000 0 0 16.2575 130.165 0 1001 16.2249 130.113 TD 25 999 5 57
1963147N12135 1963 47 WP MM POLLY 1963-05-31 06:00:00 TS 16.3071 130.407 998 tokyo main 698 698 OOOO_____O_O__ jtwc_wp WP021963 15.7000 130.800 30 -1 16.5000 130.300 2 998 0 0 0 16.5000 130.300 1 29 1000 16.4000 130.300 TD 25 996 15.7000 130.800 TC 30 15.7000 130.800 30 1007 300 5 66
1963147N12135 1963 47 WP MM POLLY 1963-05-31 09:00:00 TS 16.4592 130.599 main 726 726 PPPP_____P_P__ WP021963 16.0725 130.830 30 -1 16.6500 130.400 2 998 0 0 16.6575 130.450 1 29 1000 16.6501 130.600 TD 25 993 16.0725 130.830 TC 30 16.0725 130.830 30 1005 300 5 47
1963147N12135 1963 47 WP MM POLLY 1963-05-31 12:00:00 TS 16.6364 130.773 998 tokyo main 750 750 OOOO_____OOO__ jtwc_wp WP021963 16.4000 130.900 30 -1 16.8000 130.500 2 998 0 0 0 16.8000 130.600 1 29 1000 16.9000 130.900 TD 25 991 16.4000 130.900 TC 30 16.4000 130.900 1 30 16.4000 130.900 30 1004 300 5 42
1963147N12135 1963 47 WP MM POLLY 1963-05-31 15:00:00 TS 16.8149 130.931 main 769 769 PPPP_____PPP__ WP021963 16.6575 131.035 30 -1 16.9774 130.620 2 997 0 0 16.9849 130.728 1 29 999 17.0424 131.080 TD 25 992 16.6575 131.035 TC 30 16.6391 131.038 1 31 16.6575 131.035 30 1003 300 5 38
1963147N12135 1963 47 WP MM POLLY 1963-05-31 18:00:00 TS 17.0325 131.094 996 tokyo main 797 797 OOOO_____OPO__ jtwc_wp WP021963 16.9000 131.200 30 -1 17.2000 130.800 2 996 0 0 0 17.2000 130.900 1 29 999 17.2000 131.200 TD 25 993 16.9000 131.200 TC 30 16.8925 131.180 1 32 16.9000 131.200 30 1002 300 6 34
1963147N12135 1963 47 WP MM POLLY 1963-05-31 21:00:00 TS 17.2964 131.272 main 831 831 PPPP_____PPP__ WP021963 17.1775 131.343 32 -1 17.4775 131.077 2 996 0 0 17.4201 131.185 1 33 999 17.4699 131.278 TD 27 995 17.1775 131.343 TC 32 17.1747 131.333 1 33 17.1775 131.343 32 1000 270 7 32
1963147N12135 1963 47 WP MM POLLY 1963-06-01 00:00:00 TS 17.6143 131.471 996 tokyo main 865 865 OOOO_____OOO__ jtwc_wp WP021963 17.5000 131.500 35 0 17.8000 131.400 2 996 0 0 0 17.7000 131.500 2 38 999 17.8000 131.400 TD 30 997 17.5000 131.500 TC 35 17.5000 131.500 2 35 17.5000 131.500 35 999 240 8 31
1963147N12135 1963 47 WP MM POLLY 1963-06-01 03:00:00 TS 17.9838 131.710 main 905 905 PPPP_____PPP__ WP021963 17.8850 131.700 37 0 18.1351 131.730 2 992 0 0 18.0775 131.772 2 43 995 18.1426 131.685 TD 32 995 17.8850 131.700 TC 37 17.8763 131.684 2 37 17.8850 131.700 37 998 240 9 30
1963147N12135 1963 47 WP MM POLLY 1963-06-01 06:00:00 TS 18.3836 131.939 988 tokyo main 946 946 OOOO_____OPO__ jtwc_wp WP021963 18.3000 131.900 40 0 18.5000 132.000 9 988 0 0 0 18.5000 132.000 3 48 992 18.5000 132.000 TS 35 994 18.3000 131.900 TC 40 18.2851 131.872 2 40 18.3000 131.900 40 997 240 9 25
1963147N12135 1963 47 WP MM POLLY 1963-06-01 09:00:00 TS 18.7937 132.110 main 987 987 PPPP_____PPP__ WP021963 18.7225 132.065 42 0 18.9224 132.130 9 988 0 0 18.9150 132.173 3 53 988 18.8499 132.223 TS 37 988 18.7225 132.065 TC 42 18.7013 132.049 2 42 18.7225 132.065 42 995 240 8 20
1963147N12135 1963 47 WP MM POLLY 1963-06-01 12:00:00 TS 19.1714 132.243 988 tokyo main 1021 1021 OOOO_____OOO__ jtwc_wp WP021963 19.1000 132.200 45 0 19.3000 132.200 9 988 0 0 0 19.3000 132.300 3 58 985 19.2000 132.400 TS 40 983 19.1000 132.200 TC 45 19.1000 132.200 2 45 19.1000 132.200 45 993 240 7 20
1963147N12135 1963 47 WP MM POLLY 1963-06-01 15:00:00 TS 19.4558 132.362 main 1057 1057 PPPP_____PPP__ WP021963 19.3500 132.315 47 0 19.5075 132.308 9 987 0 0 19.6225 132.423 3 58 985 19.5725 132.565 TS 45 982 19.3500 132.315 TC 47 19.4383 132.292 2 48 19.3500 132.315 47 989 300 6 20
1963147N12135 1963 47 WP MM POLLY 1963-06-01 18:00:00 TS 19.7225 132.451 986 tokyo main 1078 1078 OOOO_____OPO__ jtwc_wp WP021963 19.6000 132.400 50 0 19.7000 132.400 9 986 0 0 0 19.9000 132.500 3 58 985 19.9000 132.700 STS 50 981 19.6000 132.400 TC 50 19.7573 132.358 2 52 19.6000 132.400 50 986 360 6 13
1963147N12135 1963 47 WP MM POLLY 1963-06-01 21:00:00 TS 20.0457 132.507 main 1085 1085 PPPP_____PPP__ WP021963 19.9700 132.458 55 0 20.0950 132.442 9 985 0 0 20.1350 132.500 3 63 985 20.1075 132.815 STS 57 982 19.9700 132.458 TC 55 20.0727 132.420 2 56 19.9700 132.458 55 984 360 7 8
1963147N12135 1963 47 WP MM POLLY 1963-06-02 00:00:00 TS 20.3857 132.557 985 tokyo main 1102 1102 OOOO_____OOO__ jtwc_wp WP021963 20.4000 132.500 60 0 20.4000 132.500 9 985 0 0 0 20.4000 132.500 4 68 985 20.3000 132.900 T 65 983 20.4000 132.500 TC 60 20.4000 132.500 2 60 20.4000 132.500 60 983 360 7 9
1963147N12135 1963 47 WP MM POLLY 1963-06-02 03:00:00 TS 20.7100 132.622 main 1109 1109 PPPP_____PPP__ WP021963 20.8649 132.520 62 0 20.2325 132.636 9 985 0 0 20.7925 132.570 4 68 983 20.5775 132.958 T 65 983 20.8649 132.520 TC 62 20.7729 132.632 2 61 20.8649 132.520 62 982 330 7 13
1963147N12135 1963 47 WP MM POLLY 1963-06-02 06:00:00 TS 21.0511 132.726 986 tokyo main 1123 1094 OOOO_____OPO__ jtwc_wp WP021963 21.3000 132.600 65 1 20.2000 132.800 9 986 0 0 0 21.2000 132.700 4 68 982 20.9000 133.000 T 65 983 21.3000 132.600 TC 65 21.1576 132.785 2 62 21.3000 132.600 65 982 300 8 20
1963147N12135 1963 47 WP MM POLLY 1963-06-02 09:00:00 TS 21.4456 132.905 main 1094 1054 PPPP_____PPP__ WP021963 21.6301 132.835 65 1 20.9400 132.950 9 986 0 0 21.5150 132.892 4 68 982 21.2350 133.043 T 65 981 21.6301 132.835 TC 65 21.5385 132.945 2 63 21.6301 132.835 65 980 300 9 24
1963147N12135 1963 47 WP MM POLLY 1963-06-02 12:00:00 TS 21.8286 133.100 986 tokyo main 1054 1024 OOOO_____OOO__ jtwc_wp WP021963 21.9000 133.100 65 1 21.8000 133.100 9 986 0 0 0 21.8000 133.100 4 68 982 21.6000 133.100 T 65 980 21.9000 133.100 TC 65 21.9000 133.100 3 65 21.9000 133.100 65 979 300 8 25
1963147N12135 1963 47 WP MM POLLY 1963-06-02 15:00:00 TS 22.1243 133.252 main 1026 997 PPPP_____PPP__ WP021963 22.1425 133.273 65 1 22.1600 133.258 9 985 0 0 22.0850 133.273 4 68 982 21.9925 133.192 T 67 977 22.1425 133.273 TC 65 22.2052 133.225 3 66 22.1425 133.273 65 977 300 6 24
1963147N12135 1963 47 WP MM POLLY 1963-06-02 18:00:00 TS 22.4132 133.378 984 tokyo main 997 967 OOOO_____OPO__ jtwc_wp WP021963 22.4000 133.400 65 1 22.4000 133.400 9 984 0 0 0 22.4000 133.400 4 68 982 22.4000 133.300 T 70 975 22.4000 133.400 TC 65 22.4923 133.343 3 67 22.4000 133.400 65 976 300 7 18
1963147N12135 1963 47 WP MM POLLY 1963-06-02 21:00:00 TS 22.7580 133.477 main 956 927 PPPP_____PPP__ WP021963 22.7200 133.508 67 1 22.7775 133.515 9 982 0 0 22.7775 133.450 4 68 981 22.8075 133.385 T 70 975 22.7200 133.508 TC 67 22.7833 133.465 3 68 22.7200 133.508 67 976 270 8 14
1963147N12135 1963 47 WP MM POLLY 1963-06-03 00:00:00 TS 23.1429 133.571 980 tokyo main 927 885 OOOO_____OOO__ jtwc_wp WP021963 23.1000 133.600 70 1 23.2000 133.600 9 980 0 0 0 23.2000 133.500 4 68 980 23.2000 133.500 T 70 975 23.1000 133.600 TC 70 23.1000 133.600 4 70 23.1000 133.600 70 976 240 8 13
1963147N12135 1963 47 WP MM POLLY 1963-06-03 03:00:00 TS 23.5561 133.672 main 877 839 PPPP_____PPP__ WP021963 23.5499 133.678 70 1 23.6349 133.628 9 979 0 0 23.6350 133.628 4 68 979 23.5425 133.693 T 67 978 23.5499 133.678 TC 70 23.4303 133.726 4 70 23.5499 133.678 70 978 240 9 15
1963147N12135 1963 47 WP MM POLLY 1963-06-03 06:00:00 TS 23.9849 133.810 978 tokyo main 839 805 OOOO_____OPO__ jtwc_wp WP021963 24.0000 133.800 70 1 24.1000 133.700 9 978 0 0 0 24.1000 133.800 4 68 978 23.9000 133.900 T 65 982 24.0000 133.800 TC 70 23.7945 133.870 4 70 24.0000 133.800 70 980 240 9 20
1963147N12135 1963 47 WP MM POLLY 1963-06-03 09:00:00 TS 24.3877 134.005 main 805 772 PPPP_____PPP__ WP021963 24.3350 134.020 70 1 24.5851 133.920 9 978 0 0 24.5924 133.970 4 68 981 24.3198 134.028 T 65 984 24.3350 134.020 TC 70 24.2114 134.054 4 70 24.3350 134.020 70 981 210 9 26
1963147N12135 1963 47 WP MM POLLY 1963-06-03 12:00:00 TS 24.8286 134.257 978 tokyo main 777 737 OOOO_____OOO__ jtwc_wp WP021963 24.7000 134.300 70 1 25.1000 134.200 9 978 0 0 0 25.1000 134.200 4 68 985 24.8000 134.200 T 65 986 24.7000 134.300 TC 70 24.7000 134.300 4 70 24.7000 134.300 70 983 180 11 27
1963147N12135 1963 47 WP MM POLLY 1963-06-03 15:00:00 TS 25.3307 134.527 main 737 695 PPPP_____PPP__ WP021963 25.1898 134.563 67 1 25.6047 134.414 9 979 0 0 25.5548 134.499 4 68 985 25.3124 134.498 T 65 987 25.1898 134.563 TC 67 25.2735 134.592 4 68 25.1898 134.563 67 985 210 12 27
1963147N12135 1963 47 WP MM POLLY 1963-06-03 18:00:00 TS 25.9309 134.879 980 tokyo main 701 656 OOOO_____OPO__ jtwc_wp WP021963 25.8000 134.900 65 1 26.2000 134.700 9 980 0 0 0 26.1000 134.900 4 68 986 25.9000 134.900 T 65 988 25.8000 134.900 TC 65 25.9165 134.952 4 67 25.8000 134.900 65 987 240 15 29
1963147N12135 1963 47 WP MM POLLY 1963-06-03 21:00:00 TS 26.6658 135.339 main 646 623 PPPP_____PPP__ WP021963 26.5349 135.355 65 1 26.9924 135.140 9 982 0 0 26.8926 135.419 4 68 986 26.5699 135.363 T 62 987 26.5349 135.355 TC 65 26.6012 135.387 4 66 26.5349 135.355 65 986 270 18 31
1963147N12135 1963 47 WP MM POLLY 1963-06-04 00:00:00 TS 27.4286 135.886 985 tokyo main 623 605 OOOO_____OOO__ jtwc_wp WP021963 27.3000 135.900 65 1 27.8000 135.700 9 985 0 0 0 27.7000 136.000 4 68 986 27.3000 135.900 STS 60 986 27.3000 135.900 TC 65 27.3000 135.900 4 65 27.3000 135.900 65 985 300 17 35
1963147N12135 1963 47 WP MM POLLY 1963-06-04 03:00:00 TS 28.0814 136.465 main 595 538 PPPP_____PPP__ WP021963 27.9571 136.464 65 1 28.4452 136.350 9 985 0 0 28.2722 136.551 4 68 983 28.0572 136.470 STS 60 983 27.9571 136.464 TC 65 27.9238 136.495 4 65 27.9571 136.464 65 982 300 17 40
1963147N12135 1963 47 WP MM POLLY 1963-06-04 06:00:00 TS 28.7087 137.095 985 tokyo main 538 491 OOOO_____OPO__ jtwc_wp WP021963 28.6000 137.100 65 1 29.0000 137.000 9 985 0 0 0 28.8000 137.100 4 68 980 28.8000 137.100 STS 60 980 28.6000 137.100 TC 65 28.5609 137.165 4 65 28.6000 137.100 65 979 300 17 42
1963147N12135 1963 47 WP MM POLLY 1963-06-04 09:00:00 TS 29.3275 137.744 main 491 451 PPPP_____PPP__ WP021963 29.2701 137.836 65 1 29.4382 137.437 9 985 0 0 29.3890 137.600 4 68 981 29.4124 137.787 STS 60 977 29.2701 137.836 TC 65 29.2424 137.877 4 65 29.2701 137.836 65 978 360 18 42
1963147N12135 1963 47 WP MM POLLY 1963-06-04 12:00:00 TS 30.0286 138.443 985 tokyo main 451 424 OOOO_____OOO__ jtwc_wp WP021963 30.0000 138.600 65 1 30.0000 138.000 9 985 0 0 0 30.1000 138.200 4 68 982 30.1000 138.500 STS 60 975 30.0000 138.600 TC 65 30.0000 138.600 4 65 30.0000 138.600 65 977 420 20 39
1963147N12135 1963 47 WP MM POLLY 1963-06-04 15:00:00 TS 30.8867 139.204 main 414 328 PPPP_____PPP__ WP021963 30.7971 139.309 65 1 30.9268 139.037 9 985 0 0 30.9834 139.069 4 68 982 31.0321 139.194 STS 60 975 30.7971 139.309 TC 65 30.8738 139.200 4 65 30.7971 139.309 65 976 420 23 36
1963147N12135 1963 47 WP MM POLLY 1963-06-04 18:00:00 TS 31.8606 139.988 985 tokyo main 320 242 OOOO_____OPO__ jtwc_wp WP021963 31.7000 140.000 65 1 32.0000 140.200 9 985 0 0 0 32.0000 140.000 4 68 983 32.1000 139.900 STS 60 975 31.7000 140.000 TC 65 31.8240 139.819 4 65 31.7000 140.000 65 976 420 24 32
1963147N12135 1963 47 WP MM POLLY 1963-06-04 21:00:00 TS 32.9000 140.695 main 234 171 PPPP_____PPP__ WP021963 32.7185 140.643 65 1 32.9981 141.111 9 985 0 0 33.1048 140.694 4 63 984 33.2288 140.599 STS 60 975 32.7185 140.643 TC 65 32.8125 140.528 4 65 32.7185 140.643 65 975 420 25 31
1963147N12135 1963 47 WP MM POLLY 1963-06-05 00:00:00 TS 33.9571 141.500 985 tokyo main 167 161 OOOO_____OOO__ jtwc_wp WP021963 33.8000 141.400 65 1 34.0000 142.000 9 985 0 0 0 34.2000 141.500 3 58 985 34.3000 141.400 STS 60 975 33.8000 141.400 TC 65 33.8000 141.400 4 65 33.8000 141.400 65 975 420 26 36
1963147N12135 1963 47 WP MM POLLY 1963-06-05 03:00:00 TS 34.9737 142.510 main 164 164 PPPP_____PPP__ WP021963 34.8933 142.373 65 1 35.0274 142.956 9 985 0 0 35.1446 142.682 3 58 985 35.1581 142.341 STS 60 975 34.8933 142.373 TC 65 34.8056 142.473 4 63 34.8933 142.373 65 976 390 27 43
1963147N12135 1963 47 WP MM POLLY 1963-06-05 06:00:00 TS 35.9119 143.747 985 tokyo main 252 252 OOOO_____OPO__ jtwc_wp WP021963 35.9000 143.600 65 1 36.0000 144.100 9 985 0 0 0 36.0000 144.100 3 58 986 35.9000 143.500 STS 60 975 35.9000 143.600 TC 65 35.7831 143.731 4 62 35.9000 143.600 65 977 360 28 51
1963147N12135 1963 47 WP MM POLLY 1963-06-05 09:00:00 TS 36.7620 145.206 main 365 365 PPPP_____PPP__ WP021963 36.7397 145.068 62 0 36.9052 145.565 9 985 0 0 36.8890 145.603 3 58 986 36.6523 144.917 STS 57 977 36.7397 145.068 TC 62 36.6688 145.150 4 61 36.7397 145.068 62 979 330 29 58
1963147N12135 1963 47 WP MM POLLY 1963-06-05 12:00:00 TS 37.4429 146.814 985 tokyo main 470 470 OOOO_____OOO__ jtwc_wp WP021963 37.4000 146.700 60 0 37.6000 147.200 9 985 0 0 0 37.6000 147.200 3 58 987 37.3000 146.500 STS 55 980 37.4000 146.700 TC 60 37.4000 146.700 2 60 37.4000 146.700 60 981 300 28 65
1963147N12135 1963 47 WP MM POLLY 1963-06-05 15:00:00 TS 37.9292 148.417 main 573 573 PPPP_____PPP__ WP021963 37.9297 148.315 57 0 37.9880 148.797 9 985 0 0 37.9880 148.797 3 53 987 37.8061 148.036 STS 52 981 37.9297 148.315 TC 57 37.9331 148.345 2 57 37.9297 148.315 57 983 300 27 73
1963147N12135 1963 47 WP MM POLLY 1963-06-05 18:00:00 MX 38.2495 150.091 985 tokyo main 677 672 OOOO_____OPO__ jtwc_wp WP021963 38.3000 150.000 55 0 38.2000 150.400 6 985 0 0 0 38.2000 150.400 9 48 988 38.2000 149.700 STS 50 983 38.3000 150.000 TC 55 38.2962 150.059 2 55 38.3000 150.000 55 985 300 27 78
1963147N12135 1963 47 WP MM POLLY 1963-06-05 21:00:00 MX 38.4897 151.797 main 742 742 PPPP_____PPP__ WP021963 38.5411 151.774 52 0 38.4087 151.913 6 985 0 0 38.4087 151.913 9 987 38.5513 151.590 STS 47 985 38.5411 151.774 TC 52 38.5360 151.818 2 52 38.5411 151.774 52 987 330 28 81
1963147N12135 1963 47 WP MM POLLY 1963-06-06 00:00:00 MX 38.6667 153.600 986 tokyo main 831 831 OOOO_____OOO__ jtwc_wp WP021963 38.7000 153.600 50 0 38.6000 153.600 6 986 0 0 0 38.6000 153.600 9 986 38.8000 153.600 TS 45 987 38.7000 153.600 TC 50 38.7000 153.600 2 50 38.7000 153.600 50 989 360 30 83
1963147N12135 1963 47 WP MM POLLY 1963-06-06 03:00:00 ET 38.8379 155.654 main 901 901 _PPP__________ WP021963 -1 38.8128 155.665 6 986 0 0 38.8128 155.665 9 986 38.9382 155.607 TS 45 987 TC 2 34 84
1963147N12135 1963 47 WP MM POLLY 1963-06-06 06:00:00 ET 39.0000 157.956 986 tokyo main 999 999 _OOO__________ -1 39.0000 158.000 6 986 0 0 0 39.0000 158.000 9 986 39.0000 157.600 TS 45 988 2 37 86
1963147N12135 1963 47 WP MM POLLY 1963-06-06 09:00:00 ET 39.1184 160.434 main 1124 1124 _PP___________ -1 39.1184 160.434 6 986 0 0 39.1184 160.434 9 986 TS 2 39 87
1963147N12135 1963 47 WP MM POLLY 1963-06-06 12:00:00 ET 39.2000 163.000 986 tokyo main 1279 1279 _OO___________ -1 39.2000 163.000 6 986 0 0 0 39.2000 163.000 9 986 40 90
1963147N12135 1963 47 WP MM POLLY 1963-06-06 15:00:00 ET 39.1259 165.542 main 1444 1444 _PP___________ -1 39.1259 165.542 6 986 0 0 39.1259 165.542 9 986 41 89
1963147N12135 1963 47 WP MM POLLY 1963-06-06 18:00:00 ET 39.3000 168.300 986 tokyo main 1551 1551 _OO___________ -1 39.3000 168.300 6 986 0 0 0 39.3000 168.300 9 986 49 79
1963147N12135 1963 47 WP MM POLLY 1963-06-06 21:00:00 ET 40.0261 171.802 main 1671 1671 _PP___________ -1 40.0261 171.802 6 986 0 0 40.0261 171.802 9 986 54 72
1963147N12135 1963 47 WP MM POLLY 1963-06-07 00:00:00 ET 41.0000 175.000 986 tokyo main 1744 1619 _OO___________ -1 41.0000 175.000 6 986 0 0 0 41.0000 175.000 9 986 43 63
1963147N12135 1963 47 WP MM POLLY 1963-06-07 03:00:00 ET 41.9713 176.831 main 1610 1476 _PP___________ -1 41.9594 176.790 6 982 0 0 41.9952 176.914 9 982 30 48
1963147N12135 1963 47 WP MM POLLY 1963-06-07 06:00:00 ET 43.0000 178.000 978 tokyo main 1462 1310 _OO___________ -1 43.0000 178.000 6 978 0 0 0 43.0000 178.000 9 978 28 42
1963147N12135 1963 47 WP MM POLLY 1963-06-07 09:00:00 ET 44.0193 179.392 main 1305 1155 _P____________ -1 44.0193 179.392 6 972 0 0 9 29 47
1963147N12135 1963 47 EP CP POLLY 1963-06-07 12:00:00 ET 45.0000 181.000 main 1141 _O____________ -1 45.0000 181.000 6 966 0 0 0 30 49

デジタル台風データ・検索

IBTrACS Databaseについて

本データベースは、米国NOAAが公開する1842年以降の世界の熱帯低気圧のベストトラックデータアーカイブInternational Best Track Archive for Climate Stewardship (IBTrACS)を、ウェブで閲覧しやすい形式に変換したものです。

最終更新日:2021-10-21